Etusivu
METAR-TAF:

METAR-TAF

Lentoasemat :

Páros, Kreikka

Leveyspiiri: 37-01-15N, Pituuspiiri: 025-06-46E, korkeus merenpinnasta: 38 m

Tämänhetkinen sää

Tämä raportti tehtiin 50 minuuttia sitten, kello 21.50 UTC
Tuuli 5 kn lännestä/luoteesta, vaihdellen lännen ja pohjoisen välillä
Lämpötila 26°C
Kosteus 61%
Ilmanpaine 1008 hPa

METAR: LGPA 132150Z AUTO 30005KT 280V010 //// // ////// 26/18 Q1008 RE//

Aika: 01:40 (22:40 UTC)


TAF: puuttuu

Säähavainnot ja -ennusteet yli 4000 lentoasemalta (METAR- ja TAF-raportit).

Käytössä olevat sääasemat on merkitty karttaan keltaisilla ja punaisilla pisteillä.

Aseta hiiri pisteen päälle nähdäksesi sääaseman nimen.

Klikkaa sitten nähdäksesi säähavainnot ja -ennusteet.

Kartan vaihtaminen: klikkaa mustalla rastilla varustettuja vihreitä pisteitä, niin voit zoomata sisään; viivalla varustettua vihreää pistettä, niin voit zoomata ulos tai vihreitä nuolia, niin pääset viereisille kartoille.


METAR-TAF: